createdAt,value
2018-12-02T00:00:45.433Z,1019.2
2018-12-02T00:05:45.416Z,1019.1
2018-12-02T00:10:45.451Z,1019.1
2018-12-02T00:15:45.433Z,1019
2018-12-02T00:20:45.430Z,1019
2018-12-02T00:25:45.433Z,1019
2018-12-02T00:30:45.527Z,1018.9
2018-12-02T00:35:45.461Z,1018.9
2018-12-02T00:40:45.460Z,1018.9
2018-12-02T00:45:45.442Z,1019
2018-12-02T00:50:45.472Z,1019
2018-12-02T00:55:45.471Z,1019
2018-12-02T01:00:45.436Z,1018.9
2018-12-02T01:05:45.449Z,1018.8
2018-12-02T01:10:45.669Z,1018.9
2018-12-02T01:15:45.455Z,1018.8
2018-12-02T01:20:45.472Z,1018.8
2018-12-02T01:25:45.456Z,1018.7
2018-12-02T01:30:45.456Z,1018.8
2018-12-02T01:35:45.477Z,1018.7
2018-12-02T01:40:45.484Z,1018.6
2018-12-02T01:45:45.493Z,1018.6
2018-12-02T01:50:45.487Z,1018.4
2018-12-02T01:55:45.488Z,1018.4
2018-12-02T02:00:45.690Z,1018.3
2018-12-02T02:05:45.491Z,1018.1
2018-12-02T02:10:45.495Z,1018
2018-12-02T02:15:45.513Z,1018.4
2018-12-02T02:20:45.642Z,1018.1
2018-12-02T02:25:45.483Z,1018
2018-12-02T02:30:46.712Z,1017.9
2018-12-02T02:35:45.480Z,1017.9
2018-12-02T02:40:45.744Z,1017.9
2018-12-02T02:45:45.501Z,1017.9
2018-12-02T02:50:45.497Z,1017.7
2018-12-02T02:55:45.484Z,1017.8
2018-12-02T03:00:45.514Z,1017.6
2018-12-02T03:05:45.520Z,1017.6
2018-12-02T03:10:45.524Z,1017.6
2018-12-02T03:15:45.497Z,1017.6
2018-12-02T03:20:45.531Z,1017.6
2018-12-02T03:25:45.516Z,1017.6
2018-12-02T03:30:45.529Z,1017.5
2018-12-02T03:35:45.540Z,1017.5
2018-12-02T03:40:45.519Z,1017.5
2018-12-02T03:45:45.536Z,1017.3
2018-12-02T03:50:45.491Z,1017.1
2018-12-02T03:55:45.557Z,1017.2
2018-12-02T04:00:45.535Z,1017
2018-12-02T04:05:45.488Z,1017
2018-12-02T04:10:45.542Z,1017.1
2018-12-02T04:15:45.554Z,1017
2018-12-02T04:20:45.532Z,1016.9
2018-12-02T04:25:45.536Z,1016.9
2018-12-02T04:30:45.571Z,1016.9
2018-12-02T04:35:45.557Z,1016.8
2018-12-02T04:40:45.535Z,1016.5
2018-12-02T04:45:45.547Z,1016.6
2018-12-02T04:50:45.576Z,1016.6
2018-12-02T04:55:45.571Z,1016.6
2018-12-02T05:00:45.577Z,1016.6
2018-12-02T05:05:45.562Z,1016.5
2018-12-02T05:10:45.571Z,1016.4
2018-12-02T05:15:45.564Z,1016.5
2018-12-02T05:20:45.604Z,1016.6
2018-12-02T05:25:45.580Z,1016.6
2018-12-02T05:30:45.762Z,1016.6
2018-12-02T05:35:45.601Z,1016.6
2018-12-02T05:40:45.589Z,1016.5
2018-12-02T05:45:45.701Z,1016.5
2018-12-02T05:50:45.827Z,1016.6
2018-12-02T05:55:45.600Z,1016.5
2018-12-02T06:00:45.589Z,1016.4
2018-12-02T06:05:45.604Z,1016.3
2018-12-02T06:10:45.614Z,1016.3
2018-12-02T06:15:45.609Z,1016.2
2018-12-02T06:20:45.625Z,1016.2
2018-12-02T06:25:46.993Z,1016.4
2018-12-02T06:30:45.616Z,1016.3
2018-12-02T06:35:45.606Z,1016.2
2018-12-02T06:40:45.618Z,1016.3
2018-12-02T06:45:45.607Z,1016.3
2018-12-02T06:50:45.631Z,1016.4
2018-12-02T06:55:45.670Z,1016.3
2018-12-02T07:00:45.667Z,1016.3
2018-12-02T07:05:45.571Z,1016.3
2018-12-02T07:10:45.627Z,1016.2
2018-12-02T07:15:45.620Z,1016.2
2018-12-02T07:20:45.666Z,1016.2
2018-12-02T07:25:45.654Z,1016.1
2018-12-02T07:30:45.768Z,1016.1
2018-12-02T07:35:45.637Z,1016.3
2018-12-02T07:40:45.656Z,1016.3
2018-12-02T07:45:45.665Z,1016.2
2018-12-02T07:50:45.618Z,1016.2
2018-12-02T07:55:45.624Z,1016.1
2018-12-02T08:00:45.641Z,1015.9
2018-12-02T08:05:45.658Z,1015.8
2018-12-02T08:10:45.663Z,1015.7
2018-12-02T08:15:45.658Z,1015.6
2018-12-02T08:20:45.648Z,1015.6
2018-12-02T08:25:45.688Z,1015.6
2018-12-02T08:30:45.728Z,1015.7
2018-12-02T08:35:45.683Z,1015.5
2018-12-02T08:40:45.684Z,1015.6
2018-12-02T08:45:45.697Z,1015.6
2018-12-02T08:50:45.690Z,1015.7
2018-12-02T08:55:45.744Z,1015.9
2018-12-02T09:00:45.678Z,1015.7
2018-12-02T09:05:45.687Z,1015.7
2018-12-02T09:10:46.763Z,1015.8
2018-12-02T09:15:45.718Z,1015.8
2018-12-02T09:20:45.662Z,1015.6
2018-12-02T09:25:45.720Z,1015.5
2018-12-02T09:30:45.947Z,1015.4
2018-12-02T09:35:45.727Z,1015.4
2018-12-02T09:40:45.730Z,1015.4
2018-12-02T09:45:45.772Z,1015.3
2018-12-02T09:50:45.683Z,1015.3
2018-12-02T09:55:45.744Z,1015.2
2018-12-02T10:00:45.729Z,1015.1
2018-12-02T10:05:45.894Z,1014.9
2018-12-02T10:10:45.766Z,1014.9
2018-12-02T10:15:45.782Z,1014.8
2018-12-02T10:20:46.145Z,1014.7
2018-12-02T10:25:45.872Z,1014.6
2018-12-02T10:30:45.801Z,1014.3
2018-12-02T10:35:45.737Z,1014
2018-12-02T10:40:45.824Z,1014.4
2018-12-02T10:45:45.755Z,1014.1
2018-12-02T10:50:45.759Z,1014
2018-12-02T10:55:45.758Z,1013.8
2018-12-02T11:00:46.115Z,1013.7
2018-12-02T11:05:46.092Z,1013.6
2018-12-02T11:10:46.124Z,1013.5
2018-12-02T11:15:46.102Z,1013.6
2018-12-02T11:20:46.095Z,1013.9
2018-12-02T11:25:46.138Z,1013.8
2018-12-02T11:30:46.682Z,1014.1
2018-12-02T11:35:46.115Z,1014.4
2018-12-02T11:40:46.107Z,1014.5
2018-12-02T11:45:46.155Z,1014.5
2018-12-02T11:50:46.150Z,1014.5
2018-12-02T11:55:46.118Z,1014.4
2018-12-02T12:00:46.121Z,1014.4
2018-12-02T12:05:46.148Z,1014.1
2018-12-02T12:10:46.153Z,1014.2
2018-12-02T12:15:46.178Z,1014.5
2018-12-02T12:20:46.141Z,1014.6
2018-12-02T12:25:46.293Z,1014.3
2018-12-02T12:30:46.150Z,1014.3
2018-12-02T12:35:46.147Z,1014
2018-12-02T12:40:46.148Z,1013.6
2018-12-02T12:45:46.149Z,1013.1
2018-12-02T12:50:46.160Z,1013
2018-12-02T12:55:51.554Z,1012.9
2018-12-02T13:00:46.312Z,1012.9
2018-12-02T13:05:46.280Z,1012.8
2018-12-02T13:10:46.421Z,1012.9
2018-12-02T13:15:46.695Z,1012.7
2018-12-02T13:20:46.185Z,1012.8
2018-12-02T13:25:46.273Z,1012.8
2018-12-02T13:30:46.191Z,1012.8
2018-12-02T13:35:46.353Z,1012.9
2018-12-02T13:40:46.233Z,1013
2018-12-02T13:45:46.140Z,1013.2
2018-12-02T13:50:46.184Z,1013.4
2018-12-02T13:55:46.182Z,1013.2
2018-12-02T14:00:46.213Z,1013.2
2018-12-02T14:05:46.229Z,1013.3
2018-12-02T14:10:46.183Z,1013.3
2018-12-02T14:15:46.189Z,1013.6
2018-12-02T14:20:46.209Z,1013.7
2018-12-02T14:25:46.478Z,1013.7
2018-12-02T14:30:46.257Z,1013.6
2018-12-02T14:35:46.209Z,1013.6
2018-12-02T14:40:49.175Z,1013.6
2018-12-02T14:45:46.546Z,1013.3
2018-12-02T14:50:46.219Z,1013.3
2018-12-02T14:55:46.480Z,1013.7
2018-12-02T15:00:46.218Z,1013.4
2018-12-02T15:05:46.259Z,1013.3
2018-12-02T15:10:46.634Z,1013
2018-12-02T15:15:46.254Z,1012.9
2018-12-02T15:20:46.253Z,1012.8
2018-12-02T15:25:46.246Z,1012.7
2018-12-02T15:30:46.590Z,1012.8
2018-12-02T15:35:46.280Z,1012.9
2018-12-02T15:40:46.262Z,1012.9
2018-12-02T15:45:46.249Z,1013
2018-12-02T15:50:51.023Z,1013
2018-12-02T15:55:46.298Z,1012.9
2018-12-02T16:00:46.484Z,1012.9
2018-12-02T16:05:46.438Z,1013
2018-12-02T16:10:46.261Z,1013
2018-12-02T16:15:46.285Z,1013.1
2018-12-02T16:20:47.194Z,1013.1
2018-12-02T16:25:46.857Z,1013.1
2018-12-02T16:30:46.844Z,1013.1
2018-12-02T16:35:46.993Z,1013
2018-12-02T16:40:46.283Z,1012.9
2018-12-02T16:45:46.321Z,1013
2018-12-02T16:50:46.318Z,1013
2018-12-02T16:55:46.299Z,1012.9
2018-12-02T17:00:46.293Z,1012.9
2018-12-02T17:05:46.452Z,1012.9
2018-12-02T17:10:51.107Z,1012.9
2018-12-02T17:15:46.801Z,1013
2018-12-02T17:20:46.335Z,1013
2018-12-02T17:25:46.876Z,1012.9
2018-12-02T17:30:46.433Z,1013
2018-12-02T17:35:46.369Z,1013
2018-12-02T17:40:46.517Z,1013
2018-12-02T17:45:47.484Z,1013
2018-12-02T17:50:46.512Z,1012.9
2018-12-02T17:55:46.823Z,1013
2018-12-02T18:00:46.461Z,1012.9
2018-12-02T18:05:47.956Z,1013
2018-12-02T18:10:48.295Z,1013
2018-12-02T18:15:49.330Z,1013
2018-12-02T18:20:46.429Z,1013.1
2018-12-02T18:25:47.154Z,1013.2
2018-12-02T18:30:47.320Z,1013.1
2018-12-02T18:35:46.347Z,1013.2
2018-12-02T18:40:46.646Z,1013.2
2018-12-02T18:45:46.381Z,1013.3
2018-12-02T18:50:46.458Z,1013.2
2018-12-02T18:55:46.349Z,1013.3
2018-12-02T19:00:46.389Z,1013.2
2018-12-02T19:05:46.830Z,1013.1
2018-12-02T19:10:49.165Z,1013.1
2018-12-02T19:15:46.606Z,1013.1
2018-12-02T19:20:46.523Z,1013.2
2018-12-02T19:25:46.402Z,1013.1
2018-12-02T19:30:46.430Z,1013.1
2018-12-02T19:35:46.644Z,1013.2
2018-12-02T19:40:47.554Z,1013.2
2018-12-02T19:45:46.469Z,1013.2
2018-12-02T19:50:46.638Z,1013.1
2018-12-02T19:55:46.470Z,1013.2
2018-12-02T20:00:47.430Z,1013.3
2018-12-02T20:05:46.402Z,1013.4
2018-12-02T20:10:46.584Z,1013.3
2018-12-02T20:15:46.407Z,1013.3
2018-12-02T20:20:47.856Z,1013.3
2018-12-02T20:25:46.495Z,1013.2
2018-12-02T20:30:46.676Z,1013.3
2018-12-02T20:35:46.946Z,1013.2
2018-12-02T20:40:46.409Z,1013.2
2018-12-02T20:45:46.434Z,1013.1
2018-12-02T20:50:46.398Z,1013.1
2018-12-02T20:55:46.759Z,1013.1
2018-12-02T21:00:47.287Z,1013
2018-12-02T21:05:46.589Z,1013
2018-12-02T21:10:46.397Z,1012.9
2018-12-02T21:15:46.430Z,1012.9
2018-12-02T21:20:46.368Z,1012.9
2018-12-02T21:25:46.545Z,1012.8
2018-12-02T21:30:46.527Z,1012.8
2018-12-02T21:35:46.404Z,1012.8
2018-12-02T21:40:46.464Z,1012.9
2018-12-02T21:45:46.412Z,1012.8
2018-12-02T21:50:46.457Z,1012.9
2018-12-02T21:55:46.440Z,1012.9
2018-12-02T22:00:46.668Z,1012.8
2018-12-02T22:05:46.437Z,1012.8
2018-12-02T22:10:46.467Z,1012.7
2018-12-02T22:15:46.464Z,1012.7
2018-12-02T22:20:46.549Z,1012.7
2018-12-02T22:25:47.640Z,1012.5
2018-12-02T22:30:46.890Z,1012.5
2018-12-02T22:35:46.562Z,1012.5
2018-12-02T22:40:46.615Z,1012.6
2018-12-02T22:45:46.476Z,1012.5
2018-12-02T22:50:46.670Z,1012.5
2018-12-02T22:55:46.602Z,1012.5
2018-12-02T23:00:46.610Z,1012.5
2018-12-02T23:05:46.453Z,1012.6
2018-12-02T23:10:46.583Z,1012.5
2018-12-02T23:15:46.615Z,1012.5
2018-12-02T23:20:46.472Z,1012.7
2018-12-02T23:25:46.591Z,1012.8
2018-12-02T23:30:46.600Z,1012.6
2018-12-02T23:35:46.647Z,1012.6
2018-12-02T23:40:46.503Z,1012.5
2018-12-02T23:45:46.604Z,1012.3
2018-12-02T23:50:47.833Z,1012.3
2018-12-02T23:55:46.745Z,1012.3
